sensor_id;sensor_type;location;lat;lon;timestamp;pressure;altitude;pressure_sealevel;temperature;humidity
10470;BME280;5282;47.052;15.458;2023-12-20T00:02:06;97436.97;;;-1.44;100.00
10470;BME280;5282;47.052;15.458;2023-12-20T00:04:33;97425.44;;;-1.43;100.00
10470;BME280;5282;47.052;15.458;2023-12-20T00:07:00;97429.50;;;-1.37;100.00
10470;BME280;5282;47.052;15.458;2023-12-20T00:09:28;97419.41;;;-1.31;100.00
10470;BME280;5282;47.052;15.458;2023-12-20T00:11:55;97416.03;;;-1.33;100.00
10470;BME280;5282;47.052;15.458;2023-12-20T00:14:22;97412.53;;;-1.33;100.00
10470;BME280;5282;47.052;15.458;2023-12-20T00:16:49;97402.91;;;-1.34;100.00
10470;BME280;5282;47.052;15.458;2023-12-20T00:19:16;97411.19;;;-1.26;100.00
10470;BME280;5282;47.052;15.458;2023-12-20T00:21:43;97404.00;;;-1.24;100.00
10470;BME280;5282;47.052;15.458;2023-12-20T00:24:10;97399.03;;;-1.29;100.00
10470;BME280;5282;47.052;15.458;2023-12-20T00:26:40;97391.19;;;-1.30;100.00
10470;BME280;5282;47.052;15.458;2023-12-20T00:29:08;97385.81;;;-1.29;100.00
10470;BME280;5282;47.052;15.458;2023-12-20T00:31:35;97379.13;;;-1.34;100.00
10470;BME280;5282;47.052;15.458;2023-12-20T00:34:01;97381.13;;;-1.38;100.00
10470;BME280;5282;47.052;15.458;2023-12-20T00:36:28;97377.53;;;-1.37;100.00
10470;BME280;5282;47.052;15.458;2023-12-20T00:38:55;97378.38;;;-1.36;100.00
10470;BME280;5282;47.052;15.458;2023-12-20T00:41:22;97376.03;;;-1.41;100.00
10470;BME280;5282;47.052;15.458;2023-12-20T00:43:50;97384.53;;;-1.50;100.00
10470;BME280;5282;47.052;15.458;2023-12-20T00:46:17;97372.06;;;-1.34;100.00
10470;BME280;5282;47.052;15.458;2023-12-20T00:48:45;97372.84;;;-1.46;100.00
10470;BME280;5282;47.052;15.458;2023-12-20T00:51:12;97370.66;;;-1.54;100.00
10470;BME280;5282;47.052;15.458;2023-12-20T00:53:39;97355.09;;;-1.44;100.00
10470;BME280;5282;47.052;15.458;2023-12-20T00:56:06;97351.81;;;-1.62;100.00
10470;BME280;5282;47.052;15.458;2023-12-20T00:58:32;97351.25;;;-1.67;100.00
10470;BME280;5282;47.052;15.458;2023-12-20T01:01:01;97340.97;;;-1.72;100.00
10470;BME280;5282;47.052;15.458;2023-12-20T01:03:29;97344.66;;;-1.75;100.00
10470;BME280;5282;47.052;15.458;2023-12-20T01:06:01;97343.97;;;-1.78;100.00
10470;BME280;5282;47.052;15.458;2023-12-20T01:08:31;97346.44;;;-1.75;100.00
10470;BME280;5282;47.052;15.458;2023-12-20T01:11:04;97348.16;;;-1.74;100.00
10470;BME280;5282;47.052;15.458;2023-12-20T01:13:32;97344.19;;;-1.81;100.00
10470;BME280;5282;47.052;15.458;2023-12-20T01:16:03;97352.00;;;-1.80;100.00
10470;BME280;5282;47.052;15.458;2023-12-20T01:18:31;97348.53;;;-1.80;100.00
10470;BME280;5282;47.052;15.458;2023-12-20T01:21:03;97347.50;;;-1.78;100.00
10470;BME280;5282;47.052;15.458;2023-12-20T01:23:36;97345.31;;;-1.86;100.00
10470;BME280;5282;47.052;15.458;2023-12-20T01:26:18;97348.13;;;-1.89;100.00
10470;BME280;5282;47.052;15.458;2023-12-20T01:28:51;97344.56;;;-1.88;100.00
10470;BME280;5282;47.052;15.458;2023-12-20T01:31:21;97332.41;;;-1.90;100.00
10470;BME280;5282;47.052;15.458;2023-12-20T01:33:49;97329.59;;;-1.87;100.00
10470;BME280;5282;47.052;15.458;2023-12-20T01:36:18;97340.50;;;-1.93;100.00
10470;BME280;5282;47.052;15.458;2023-12-20T01:38:49;97348.63;;;-1.96;100.00
10470;BME280;5282;47.052;15.458;2023-12-20T01:41:18;97341.72;;;-1.99;100.00
10470;BME280;5282;47.052;15.458;2023-12-20T01:43:49;97330.91;;;-1.94;100.00
10470;BME280;5282;47.052;15.458;2023-12-20T01:46:24;97328.56;;;-2.13;100.00
10470;BME280;5282;47.052;15.458;2023-12-20T01:48:54;97327.41;;;-2.09;100.00
10470;BME280;5282;47.052;15.458;2023-12-20T01:51:23;97307.53;;;-2.15;100.00
10470;BME280;5282;47.052;15.458;2023-12-20T01:53:55;97312.72;;;-2.13;100.00
10470;BME280;5282;47.052;15.458;2023-12-20T01:56:31;97306.47;;;-2.12;100.00
10470;BME280;5282;47.052;15.458;2023-12-20T01:59:00;97303.66;;;-2.09;100.00
10470;BME280;5282;47.052;15.458;2023-12-20T02:01:30;97299.16;;;-2.07;100.00
10470;BME280;5282;47.052;15.458;2023-12-20T02:03:57;97287.94;;;-2.11;100.00
10470;BME280;5282;47.052;15.458;2023-12-20T02:06:29;97286.13;;;-2.10;100.00
10470;BME280;5282;47.052;15.458;2023-12-20T02:08:57;97278.69;;;-2.04;100.00
10470;BME280;5282;47.052;15.458;2023-12-20T02:11:25;97273.34;;;-2.02;100.00
10470;BME280;5282;47.052;15.458;2023-12-20T02:13:53;97273.34;;;-2.02;100.00
10470;BME280;5282;47.052;15.458;2023-12-20T02:16:21;97264.66;;;-2.04;100.00
10470;BME280;5282;47.052;15.458;2023-12-20T02:18:50;97264.84;;;-2.07;100.00
10470;BME280;5282;47.052;15.458;2023-12-20T02:21:17;97257.88;;;-2.08;100.00
10470;BME280;5282;47.052;15.458;2023-12-20T02:23:45;97263.34;;;-2.11;100.00
10470;BME280;5282;47.052;15.458;2023-12-20T02:26:13;97259.56;;;-2.07;100.00
10470;BME280;5282;47.052;15.458;2023-12-20T02:28:40;97249.03;;;-2.07;100.00
10470;BME280;5282;47.052;15.458;2023-12-20T02:31:07;97245.53;;;-2.08;100.00
10470;BME280;5282;47.052;15.458;2023-12-20T02:33:34;97232.25;;;-2.06;100.00
10470;BME280;5282;47.052;15.458;2023-12-20T02:36:02;97233.19;;;-2.07;100.00
10470;BME280;5282;47.052;15.458;2023-12-20T02:38:29;97229.16;;;-2.13;100.00
10470;BME280;5282;47.052;15.458;2023-12-20T02:40:58;97221.34;;;-2.14;100.00
10470;BME280;5282;47.052;15.458;2023-12-20T02:43:25;97214.38;;;-2.15;100.00
10470;BME280;5282;47.052;15.458;2023-12-20T02:45:52;97209.75;;;-2.12;100.00
10470;BME280;5282;47.052;15.458;2023-12-20T02:48:19;97214.25;;;-2.14;100.00
10470;BME280;5282;47.052;15.458;2023-12-20T02:50:47;97215.13;;;-2.13;100.00
10470;BME280;5282;47.052;15.458;2023-12-20T02:53:17;97207.94;;;-2.11;100.00
10470;BME280;5282;47.052;15.458;2023-12-20T02:55:43;97202.09;;;-2.02;100.00
10470;BME280;5282;47.052;15.458;2023-12-20T02:58:12;97195.50;;;-2.09;100.00
10470;BME280;5282;47.052;15.458;2023-12-20T03:00:39;97190.63;;;-2.15;100.00
10470;BME280;5282;47.052;15.458;2023-12-20T03:03:06;97194.38;;;-2.20;100.00
10470;BME280;5282;47.052;15.458;2023-12-20T03:05:33;97178.75;;;-2.23;100.00
10470;BME280;5282;47.052;15.458;2023-12-20T03:07:59;97178.75;;;-2.23;100.00
10470;BME280;5282;47.052;15.458;2023-12-20T03:10:27;97174.63;;;-2.27;100.00
10470;BME280;5282;47.052;15.458;2023-12-20T03:12:54;97169.66;;;-2.31;100.00
10470;BME280;5282;47.052;15.458;2023-12-20T03:15:23;97163.31;;;-2.29;100.00
10470;BME280;5282;47.052;15.458;2023-12-20T03:17:51;97169.44;;;-2.28;100.00
10470;BME280;5282;47.052;15.458;2023-12-20T03:20:18;97161.63;;;-2.30;100.00
10470;BME280;5282;47.052;15.458;2023-12-20T03:22:45;97164.25;;;-2.30;100.00
10470;BME280;5282;47.052;15.458;2023-12-20T03:25:14;97161.34;;;-2.40;100.00
10470;BME280;5282;47.052;15.458;2023-12-20T03:27:44;97159.22;;;-2.62;100.00
10470;BME280;5282;47.052;15.458;2023-12-20T03:30:12;97159.28;;;-2.64;100.00
10470;BME280;5282;47.052;15.458;2023-12-20T03:32:41;97158.16;;;-2.59;100.00
10470;BME280;5282;47.052;15.458;2023-12-20T03:35:08;97158.91;;;-2.43;100.00
10470;BME280;5282;47.052;15.458;2023-12-20T03:37:37;97157.31;;;-2.45;100.00
10470;BME280;5282;47.052;15.458;2023-12-20T03:40:05;97149.03;;;-2.54;100.00
10470;BME280;5282;47.052;15.458;2023-12-20T03:42:32;97151.78;;;-2.55;100.00
10470;BME280;5282;47.052;15.458;2023-12-20T03:44:59;97151.66;;;-2.54;100.00
10470;BME280;5282;47.052;15.458;2023-12-20T03:47:26;97155.25;;;-2.55;100.00
10470;BME280;5282;47.052;15.458;2023-12-20T03:49:56;97149.50;;;-2.47;100.00
10470;BME280;5282;47.052;15.458;2023-12-20T03:52:23;97150.16;;;-2.43;100.00
10470;BME280;5282;47.052;15.458;2023-12-20T03:54:50;97149.78;;;-2.52;100.00
10470;BME280;5282;47.052;15.458;2023-12-20T03:57:18;97151.78;;;-2.55;100.00
10470;BME280;5282;47.052;15.458;2023-12-20T03:59:45;97151.94;;;-2.58;100.00
10470;BME280;5282;47.052;15.458;2023-12-20T04:02:12;97155.44;;;-2.72;100.00
10470;BME280;5282;47.052;15.458;2023-12-20T04:04:39;97152.53;;;-2.68;100.00
10470;BME280;5282;47.052;15.458;2023-12-20T04:07:09;97153.19;;;-2.64;100.00
10470;BME280;5282;47.052;15.458;2023-12-20T04:09:36;97155.72;;;-2.63;100.00
10470;BME280;5282;47.052;15.458;2023-12-20T04:12:03;97157.50;;;-2.63;100.00
10470;BME280;5282;47.052;15.458;2023-12-20T04:14:31;97154.13;;;-2.65;100.00
10470;BME280;5282;47.052;15.458;2023-12-20T04:16:58;97154.22;;;-2.67;100.00
10470;BME280;5282;47.052;15.458;2023-12-20T04:19:25;97145.56;;;-2.69;100.00
10470;BME280;5282;47.052;15.458;2023-12-20T04:21:52;97145.63;;;-2.70;100.00
10470;BME280;5282;47.052;15.458;2023-12-20T04:24:20;97146.97;;;-2.77;100.00
10470;BME280;5282;47.052;15.458;2023-12-20T04:26:47;97138.31;;;-2.80;100.00
10470;BME280;5282;47.052;15.458;2023-12-20T04:29:14;97141.50;;;-2.74;100.00
10470;BME280;5282;47.052;15.458;2023-12-20T04:31:41;97141.13;;;-2.68;100.00
10470;BME280;5282;47.052;15.458;2023-12-20T04:34:09;97144.97;;;-2.74;100.00
10470;BME280;5282;47.052;15.458;2023-12-20T04:36:36;97142.44;;;-2.75;100.00
10470;BME280;5282;47.052;15.458;2023-12-20T04:39:03;97138.78;;;-2.73;100.00
10470;BME280;5282;47.052;15.458;2023-12-20T04:41:31;97140.09;;;-2.66;100.00
10470;BME280;5282;47.052;15.458;2023-12-20T04:43:58;97141.22;;;-2.70;100.00
10470;BME280;5282;47.052;15.458;2023-12-20T04:46:26;97138.78;;;-2.73;100.00
10470;BME280;5282;47.052;15.458;2023-12-20T04:48:53;97135.31;;;-2.73;100.00
10470;BME280;5282;47.052;15.458;2023-12-20T04:51:19;97134.44;;;-2.74;100.00
10470;BME280;5282;47.052;15.458;2023-12-20T04:53:46;97127.47;;;-2.75;100.00
10470;BME280;5282;47.052;15.458;2023-12-20T04:56:13;97130.22;;;-2.76;100.00
10470;BME280;5282;47.052;15.458;2023-12-20T04:58:42;97123.34;;;-2.79;100.00
10470;BME280;5282;47.052;15.458;2023-12-20T05:01:09;97130.97;;;-2.74;100.00
10470;BME280;5282;47.052;15.458;2023-12-20T05:03:36;97141.03;;;-2.81;100.00
10470;BME280;5282;47.052;15.458;2023-12-20T05:06:04;97140.47;;;-3.01;100.00
10470;BME280;5282;47.052;15.458;2023-12-20T05:08:31;97141.56;;;-3.19;100.00
10470;BME280;5282;47.052;15.458;2023-12-20T05:10:57;97146.16;;;-3.23;100.00
10470;BME280;5282;47.052;15.458;2023-12-20T05:13:24;97151.75;;;-3.13;100.00
10470;BME280;5282;47.052;15.458;2023-12-20T05:15:52;97140.75;;;-3.05;100.00
10470;BME280;5282;47.052;15.458;2023-12-20T05:18:20;97136.16;;;-3.02;100.00
10470;BME280;5282;47.052;15.458;2023-12-20T05:20:47;97131.63;;;-3.00;100.00
10470;BME280;5282;47.052;15.458;2023-12-20T05:23:14;97121.75;;;-2.96;100.00
10470;BME280;5282;47.052;15.458;2023-12-20T05:25:40;97132.00;;;-3.06;100.00
10470;BME280;5282;47.052;15.458;2023-12-20T05:28:07;97136.22;;;-3.03;100.00
10470;BME280;5282;47.052;15.458;2023-12-20T05:30:34;97126.16;;;-2.97;100.00
10470;BME280;5282;47.052;15.458;2023-12-20T05:33:03;97117.97;;;-2.92;100.00
10470;BME280;5282;47.052;15.458;2023-12-20T05:35:30;97126.63;;;-2.90;100.00
10470;BME280;5282;47.052;15.458;2023-12-20T05:37:57;97119.00;;;-2.95;100.00
10470;BME280;5282;47.052;15.458;2023-12-20T05:40:24;97131.53;;;-2.98;100.00
10470;BME280;5282;47.052;15.458;2023-12-20T05:42:51;97123.72;;;-3.14;100.00
10470;BME280;5282;47.052;15.458;2023-12-20T05:45:18;97116.25;;;-3.22;100.00
10470;BME280;5282;47.052;15.458;2023-12-20T05:47:45;97106.09;;;-3.14;100.00
10470;BME280;5282;47.052;15.458;2023-12-20T05:50:14;97103.28;;;-3.25;100.00
10470;BME280;5282;47.052;15.458;2023-12-20T05:52:41;97108.06;;;-3.32;100.00
10470;BME280;5282;47.052;15.458;2023-12-20T05:55:08;97110.81;;;-3.19;100.00
10470;BME280;5282;47.052;15.458;2023-12-20T05:57:35;97105.47;;;-3.03;100.00
10470;BME280;5282;47.052;15.458;2023-12-20T06:00:02;97117.78;;;-2.89;100.00
10470;BME280;5282;47.052;15.458;2023-12-20T06:02:29;97125.06;;;-2.78;100.00
10470;BME280;5282;47.052;15.458;2023-12-20T06:04:56;97128.81;;;-2.68;100.00
10470;BME280;5282;47.052;15.458;2023-12-20T06:07:24;97126.44;;;-2.58;100.00
10470;BME280;5282;47.052;15.458;2023-12-20T06:09:51;97126.59;;;-2.46;100.00
10470;BME280;5282;47.052;15.458;2023-12-20T06:12:18;97125.66;;;-2.31;100.00
10470;BME280;5282;47.052;15.458;2023-12-20T06:14:45;97125.50;;;-2.15;100.00
10470;BME280;5282;47.052;15.458;2023-12-20T06:17:14;97118.69;;;-2.05;100.00
10470;BME280;5282;47.052;15.458;2023-12-20T06:19:41;97121.03;;;-2.00;100.00
10470;BME280;5282;47.052;15.458;2023-12-20T06:22:10;97118.00;;;-1.94;100.00
10470;BME280;5282;47.052;15.458;2023-12-20T06:24:39;97121.72;;;-1.83;100.00
10470;BME280;5282;47.052;15.458;2023-12-20T06:27:06;97117.22;;;-1.81;100.00
10470;BME280;5282;47.052;15.458;2023-12-20T06:29:32;97122.19;;;-1.77;100.00
10470;BME280;5282;47.052;15.458;2023-12-20T06:32:00;97116.94;;;-1.64;100.00
10470;BME280;5282;47.052;15.458;2023-12-20T06:34:27;97118.00;;;-1.53;100.00
10470;BME280;5282;47.052;15.458;2023-12-20T06:36:54;97114.66;;;-1.43;100.00
10470;BME280;5282;47.052;15.458;2023-12-20T06:39:21;97123.97;;;-1.37;100.00
10470;BME280;5282;47.052;15.458;2023-12-20T06:41:49;97124.47;;;-1.32;100.00
10470;BME280;5282;47.052;15.458;2023-12-20T06:44:16;97123.22;;;-1.26;100.00
10470;BME280;5282;47.052;15.458;2023-12-20T06:46:44;97124.09;;;-1.13;100.00
10470;BME280;5282;47.052;15.458;2023-12-20T06:49:11;97130.66;;;-1.05;100.00
10470;BME280;5282;47.052;15.458;2023-12-20T06:51:38;97128.00;;;-0.93;100.00
10470;BME280;5282;47.052;15.458;2023-12-20T06:54:05;97127.81;;;-0.89;100.00
10470;BME280;5282;47.052;15.458;2023-12-20T06:56:32;97139.00;;;-0.86;100.00
10470;BME280;5282;47.052;15.458;2023-12-20T06:59:00;97137.09;;;-0.71;100.00
10470;BME280;5282;47.052;15.458;2023-12-20T07:01:28;97139.75;;;-0.71;100.00
10470;BME280;5282;47.052;15.458;2023-12-20T07:03:55;97144.06;;;-0.70;100.00
10470;BME280;5282;47.052;15.458;2023-12-20T07:06:22;97145.91;;;-0.70;100.00
10470;BME280;5282;47.052;15.458;2023-12-20T07:08:52;97148.50;;;-0.57;100.00
10470;BME280;5282;47.052;15.458;2023-12-20T07:11:18;97150.63;;;-0.50;100.00
10470;BME280;5282;47.052;15.458;2023-12-20T07:13:45;97161.94;;;-0.48;100.00
10470;BME280;5282;47.052;15.458;2023-12-20T07:16:16;97170.38;;;-0.42;100.00
10470;BME280;5282;47.052;15.458;2023-12-20T07:18:43;97166.91;;;-0.43;100.00
10470;BME280;5282;47.052;15.458;2023-12-20T07:21:10;97167.13;;;-0.46;100.00
10470;BME280;5282;47.052;15.458;2023-12-20T07:23:39;97176.50;;;-0.29;100.00
10470;BME280;5282;47.052;15.458;2023-12-20T07:26:06;97173.66;;;-0.26;100.00
10470;BME280;5282;47.052;15.458;2023-12-20T07:28:33;97187.53;;;-0.35;100.00
10470;BME280;5282;47.052;15.458;2023-12-20T07:31:00;97196.22;;;-0.46;100.00
10470;BME280;5282;47.052;15.458;2023-12-20T07:33:28;97202.75;;;-0.39;100.00
10470;BME280;5282;47.052;15.458;2023-12-20T07:35:55;97207.88;;;-0.49;100.00
10470;BME280;5282;47.052;15.458;2023-12-20T07:38:22;97205.88;;;-0.58;100.00
10470;BME280;5282;47.052;15.458;2023-12-20T07:40:49;97206.91;;;-0.48;100.00
10470;BME280;5282;47.052;15.458;2023-12-20T07:43:16;97205.41;;;-0.39;100.00
10470;BME280;5282;47.052;15.458;2023-12-20T07:45:43;97207.25;;;-0.52;100.00
10470;BME280;5282;47.052;15.458;2023-12-20T07:48:10;97210.59;;;-0.50;100.00
10470;BME280;5282;47.052;15.458;2023-12-20T07:50:38;97209.03;;;-0.53;100.00
10470;BME280;5282;47.052;15.458;2023-12-20T07:53:05;97214.84;;;-0.48;100.00
10470;BME280;5282;47.052;15.458;2023-12-20T07:55:32;97217.06;;;-0.41;100.00
10470;BME280;5282;47.052;15.458;2023-12-20T07:58:00;97215.28;;;-0.41;100.00
10470;BME280;5282;47.052;15.458;2023-12-20T08:00:28;97220.88;;;-0.33;100.00
10470;BME280;5282;47.052;15.458;2023-12-20T08:02:55;97231.22;;;-0.42;100.00
10470;BME280;5282;47.052;15.458;2023-12-20T08:05:21;97238.00;;;-0.38;100.00
10470;BME280;5282;47.052;15.458;2023-12-20T08:07:50;97243.94;;;-0.35;100.00
10470;BME280;5282;47.052;15.458;2023-12-20T08:10:17;97239.19;;;-0.29;100.00
10470;BME280;5282;47.052;15.458;2023-12-20T08:12:44;97242.88;;;-0.19;100.00
10470;BME280;5282;47.052;15.458;2023-12-20T08:15:12;97243.19;;;-0.11;100.00
10470;BME280;5282;47.052;15.458;2023-12-20T08:17:40;97237.97;;;0.01;100.00
10470;BME280;5282;47.052;15.458;2023-12-20T08:20:07;97237.97;;;0.01;100.00
10470;BME280;5282;47.052;15.458;2023-12-20T08:22:34;97235.53;;;-0.03;100.00
10470;BME280;5282;47.052;15.458;2023-12-20T08:25:03;97247.94;;;-0.03;100.00
10470;BME280;5282;47.052;15.458;2023-12-20T08:27:30;97247.81;;;-0.02;100.00
10470;BME280;5282;47.052;15.458;2023-12-20T08:29:57;97243.91;;;-0.09;100.00
10470;BME280;5282;47.052;15.458;2023-12-20T08:32:25;97246.31;;;0.07;100.00
10470;BME280;5282;47.052;15.458;2023-12-20T08:34:52;97231.44;;;-0.07;100.00
10470;BME280;5282;47.052;15.458;2023-12-20T08:37:19;97243.97;;;0.15;100.00
10470;BME280;5282;47.052;15.458;2023-12-20T08:39:45;97254.47;;;0.17;100.00
10470;BME280;5282;47.052;15.458;2023-12-20T08:42:14;97253.69;;;0.28;100.00
10470;BME280;5282;47.052;15.458;2023-12-20T08:44:41;97257.91;;;0.30;100.00
10470;BME280;5282;47.052;15.458;2023-12-20T08:47:07;97244.78;;;0.53;100.00
10470;BME280;5282;47.052;15.458;2023-12-20T08:49:38;97243.63;;;0.57;100.00
10470;BME280;5282;47.052;15.458;2023-12-20T08:52:05;97267.81;;;0.53;100.00
10470;BME280;5282;47.052;15.458;2023-12-20T08:54:32;97260.47;;;0.56;100.00
10470;BME280;5282;47.052;15.458;2023-12-20T08:56:59;97258.78;;;0.55;100.00
10470;BME280;5282;47.052;15.458;2023-12-20T08:59:27;97256.66;;;0.60;100.00
10470;BME280;5282;47.052;15.458;2023-12-20T09:01:54;97266.06;;;0.65;100.00
10470;BME280;5282;47.052;15.458;2023-12-20T09:04:21;97271.34;;;0.65;100.00
10470;BME280;5282;47.052;15.458;2023-12-20T09:06:48;97281.81;;;0.55;100.00
10470;BME280;5282;47.052;15.458;2023-12-20T09:09:15;97274.41;;;0.71;100.00
10470;BME280;5282;47.052;15.458;2023-12-20T09:11:42;97268.28;;;0.71;100.00
10470;BME280;5282;47.052;15.458;2023-12-20T09:14:11;97259.44;;;0.83;100.00
10470;BME280;5282;47.052;15.458;2023-12-20T09:16:40;97260.88;;;0.87;100.00
10470;BME280;5282;47.052;15.458;2023-12-20T09:19:06;97243.78;;;0.91;100.00
10470;BME280;5282;47.052;15.458;2023-12-20T09:21:33;97234.84;;;0.81;100.00
10470;BME280;5282;47.052;15.458;2023-12-20T09:24:00;97234.03;;;0.68;100.00
10470;BME280;5282;47.052;15.458;2023-12-20T09:26:27;97242.78;;;0.81;100.00
10470;BME280;5282;47.052;15.458;2023-12-20T09:28:54;97243.22;;;0.75;100.00
10470;BME280;5282;47.052;15.458;2023-12-20T09:31:21;97250.22;;;0.76;100.00
10470;BME280;5282;47.052;15.458;2023-12-20T09:33:49;97246.00;;;0.98;100.00
10470;BME280;5282;47.052;15.458;2023-12-20T09:36:16;97250.97;;;1.02;100.00
10470;BME280;5282;47.052;15.458;2023-12-20T09:38:43;97245.56;;;1.15;100.00
10470;BME280;5282;47.052;15.458;2023-12-20T09:41:10;97256.56;;;1.22;100.00
10470;BME280;5282;47.052;15.458;2023-12-20T09:43:37;97265.59;;;1.19;100.00
10470;BME280;5282;47.052;15.458;2023-12-20T09:46:05;97262.44;;;1.14;100.00
10470;BME280;5282;47.052;15.458;2023-12-20T09:48:33;97246.56;;;1.26;100.00
10470;BME280;5282;47.052;15.458;2023-12-20T09:51:03;97256.72;;;1.32;100.00
10470;BME280;5282;47.052;15.458;2023-12-20T09:53:30;97241.44;;;1.58;100.00
10470;BME280;5282;47.052;15.458;2023-12-20T09:55:59;97218.50;;;1.46;100.00
10470;BME280;5282;47.052;15.458;2023-12-20T09:58:26;97212.84;;;1.62;100.00
10470;BME280;5282;47.052;15.458;2023-12-20T10:00:54;97207.06;;;1.57;100.00
10470;BME280;5282;47.052;15.458;2023-12-20T10:03:24;97213.31;;;1.56;100.00
10470;BME280;5282;47.052;15.458;2023-12-20T10:05:54;97215.16;;;1.66;100.00
10470;BME280;5282;47.052;15.458;2023-12-20T10:08:22;97211.03;;;2.08;100.00
10470;BME280;5282;47.052;15.458;2023-12-20T10:10:50;97206.03;;;2.37;100.00
10470;BME280;5282;47.052;15.458;2023-12-20T10:13:17;97214.44;;;2.65;100.00
10470;BME280;5282;47.052;15.458;2023-12-20T10:15:44;97212.91;;;2.84;100.00
10470;BME280;5282;47.052;15.458;2023-12-20T10:18:12;97211.88;;;2.75;100.00
10470;BME280;5282;47.052;15.458;2023-12-20T10:20:41;97212.03;;;2.95;100.00
10470;BME280;5282;47.052;15.458;2023-12-20T10:23:08;97207.00;;;3.13;100.00
10470;BME280;5282;47.052;15.458;2023-12-20T10:25:36;97208.09;;;3.10;100.00
10470;BME280;5282;47.052;15.458;2023-12-20T10:28:10;97202.50;;;3.13;100.00
10470;BME280;5282;47.052;15.458;2023-12-20T10:30:37;97194.53;;;3.34;100.00
10470;BME280;5282;47.052;15.458;2023-12-20T10:33:06;97185.72;;;3.13;100.00
10470;BME280;5282;47.052;15.458;2023-12-20T10:35:33;97185.50;;;3.26;100.00
10470;BME280;5282;47.052;15.458;2023-12-20T10:38:03;97180.41;;;3.65;100.00
10470;BME280;5282;47.052;15.458;2023-12-20T10:40:30;97191.91;;;3.65;100.00
10470;BME280;5282;47.052;15.458;2023-12-20T10:42:59;97196.88;;;3.80;100.00
10470;BME280;5282;47.052;15.458;2023-12-20T10:45:27;97193.22;;;4.12;100.00
10470;BME280;5282;47.052;15.458;2023-12-20T10:47:56;97174.66;;;4.61;100.00
10470;BME280;5282;47.052;15.458;2023-12-20T10:50:24;97190.22;;;4.46;100.00
10470;BME280;5282;47.052;15.458;2023-12-20T10:52:52;97186.53;;;4.37;100.00
10470;BME280;5282;47.052;15.458;2023-12-20T10:55:21;97178.94;;;4.32;100.00
10470;BME280;5282;47.052;15.458;2023-12-20T10:57:49;97177.81;;;4.25;100.00
10470;BME280;5282;47.052;15.458;2023-12-20T11:00:19;97170.81;;;4.24;100.00
10470;BME280;5282;47.052;15.458;2023-12-20T11:02:49;97178.94;;;4.23;100.00
10470;BME280;5282;47.052;15.458;2023-12-20T11:05:25;97179.00;;;4.01;100.00
10470;BME280;5282;47.052;15.458;2023-12-20T11:08:01;97170.16;;;3.91;100.00
10470;BME280;5282;47.052;15.458;2023-12-20T11:10:31;97163.28;;;3.98;100.00
10470;BME280;5282;47.052;15.458;2023-12-20T11:13:07;97167.38;;;4.03;100.00
10470;BME280;5282;47.052;15.458;2023-12-20T11:15:37;97167.13;;;4.06;100.00
10470;BME280;5282;47.052;15.458;2023-12-20T11:18:05;97164.59;;;4.14;100.00
10470;BME280;5282;47.052;15.458;2023-12-20T11:20:36;97162.88;;;4.03;100.00
10470;BME280;5282;47.052;15.458;2023-12-20T11:23:04;97162.34;;;4.09;100.00
10470;BME280;5282;47.052;15.458;2023-12-20T11:25:46;97172.00;;;4.00;100.00
10470;BME280;5282;47.052;15.458;2023-12-20T11:28:13;97173.88;;;3.79;100.00
10470;BME280;5282;47.052;15.458;2023-12-20T11:30:42;97171.69;;;3.94;100.00
10470;BME280;5282;47.052;15.458;2023-12-20T11:33:13;97160.22;;;4.03;100.00
10470;BME280;5282;47.052;15.458;2023-12-20T11:35:41;97166.78;;;3.89;100.00
10470;BME280;5282;47.052;15.458;2023-12-20T11:38:08;97163.88;;;3.71;100.00
10470;BME280;5282;47.052;15.458;2023-12-20T11:40:36;97160.81;;;3.76;100.00
10470;BME280;5282;47.052;15.458;2023-12-20T11:43:04;97164.91;;;3.80;100.00
10470;BME280;5282;47.052;15.458;2023-12-20T11:45:31;97149.41;;;3.85;100.00
10470;BME280;5282;47.052;15.458;2023-12-20T11:48:02;97152.16;;;3.83;100.00
10470;BME280;5282;47.052;15.458;2023-12-20T11:50:29;97142.63;;;3.81;100.00
10470;BME280;5282;47.052;15.458;2023-12-20T11:52:56;97147.81;;;3.82;100.00
10470;BME280;5282;47.052;15.458;2023-12-20T11:55:23;97137.06;;;3.94;100.00
10470;BME280;5282;47.052;15.458;2023-12-20T11:57:50;97140.47;;;4.06;100.00
10470;BME280;5282;47.052;15.458;2023-12-20T12:00:18;97137.00;;;4.15;100.00
10470;BME280;5282;47.052;15.458;2023-12-20T12:02:55;97137.69;;;4.17;100.00
10470;BME280;5282;47.052;15.458;2023-12-20T12:05:24;97128.31;;;4.23;100.00
10470;BME280;5282;47.052;15.458;2023-12-20T12:07:51;97114.09;;;4.03;100.00
10470;BME280;5282;47.052;15.458;2023-12-20T12:10:18;97120.56;;;4.10;100.00
10470;BME280;5282;47.052;15.458;2023-12-20T12:12:45;97120.88;;;4.26;100.00
10470;BME280;5282;47.052;15.458;2023-12-20T12:15:12;97121.16;;;4.23;100.00
10470;BME280;5282;47.052;15.458;2023-12-20T12:17:39;97113.88;;;4.25;100.00
10470;BME280;5282;47.052;15.458;2023-12-20T12:20:07;97111.75;;;4.19;100.00
10470;BME280;5282;47.052;15.458;2023-12-20T12:22:36;97109.78;;;4.21;100.00
10470;BME280;5282;47.052;15.458;2023-12-20T12:25:11;97107.84;;;4.33;100.00
10470;BME280;5282;47.052;15.458;2023-12-20T12:27:40;97113.03;;;4.25;100.00
10470;BME280;5282;47.052;15.458;2023-12-20T12:30:08;97111.63;;;4.30;100.00
10470;BME280;5282;47.052;15.458;2023-12-20T12:32:35;97111.91;;;4.27;100.00
10470;BME280;5282;47.052;15.458;2023-12-20T12:35:03;97108.09;;;4.20;100.00
10470;BME280;5282;47.052;15.458;2023-12-20T12:37:34;97107.13;;;4.21;100.00
10470;BME280;5282;47.052;15.458;2023-12-20T12:40:03;97102.34;;;4.15;100.00
10470;BME280;5282;47.052;15.458;2023-12-20T12:42:30;97105.88;;;4.25;100.00
10470;BME280;5282;47.052;15.458;2023-12-20T12:44:57;97094.63;;;4.31;100.00
10470;BME280;5282;47.052;15.458;2023-12-20T12:47:24;97094.38;;;4.35;100.00
10470;BME280;5282;47.052;15.458;2023-12-20T12:49:51;97101.50;;;4.24;100.00
10470;BME280;5282;47.052;15.458;2023-12-20T12:52:19;97101.25;;;4.27;100.00
10470;BME280;5282;47.052;15.458;2023-12-20T12:54:45;97099.72;;;4.25;100.00
10470;BME280;5282;47.052;15.458;2023-12-20T12:57:14;97103.47;;;4.22;100.00